EGTCEGGW

Guest
Details From EGTC - Cranfield
To EGGW - London Luton
Flight Number -
Tags Routegen Generated
Created
Modified
Stats Distance 27 nm / 50 km
Max Altitude 100 ft / 30 m
Waypoints 5
Social Downloads 1
Likes 0
Share

Download

Looking for another format? Having issues loading an existing format? Contact us
Advertisement - Login to hide

Notes

Departing runway 3 EGTC. Arriving runway 7 EGGW.

Route

EGTC +52.14_+000.55 +52.02_+000.39 +51.90_+000.24 EGGW

ID Type Via Altitude (ft/m) Position (lat/lon) Dist (leg/tot) Name
O EGTC APT - 0 / 0 52.07898 / -0.60980 - / 0 nm
+52.14_+000.55 LATLON - 100 / 30 52.14055 / -0.54788 4 / 4 nm
+52.02_+000.39 LATLON - 100 / 30 52.01863 / -0.39414 9 / 13 nm
+51.90_+000.24 LATLON - 100 / 30 51.89671 / -0.24041 9 / 22 nm
O EGGW APT - 0 / 0 51.87725 / -0.35333 4 / 27 nm

Altitude Profile

Advertisement - Login to hide

EGTC

Details ICAO EGTC
Name Cranfield
Region United Kingdom
Timezone Europe/London (UTC+1.0)
Stats Elevation 357 ft / 109 m (AMSL)
Location 52.072100° -0.616674°
Runways 1
Magnetic Variation 0.111° W

METAR

EGTC 161420Z 18005KT 120V210 9999 FEW031 SCT047 15/11 Q1019

Decode

TAF

Not found

Departure Runways

ID Width Length Bearing (true/mag) Surface Threshold Overrun Markings Lighting
03 150 ft / 46 m 5,890 ft / 1,795 m 31.65° / 31.77° ASPHALT 659 ft / 201 m 0 ft / 0 m UK-PREC-APP EDGE THRESHOLD MALSR
21 150 ft / 46 m 5,890 ft / 1,795 m 211.66° / 211.78° ASPHALT 0 ft / 0 m 0 ft / 0 m UK-PREC-APP EDGE THRESHOLD MALS

EGGW

Details ICAO EGGW (LTN)
Name London Luton
Region United Kingdom
Timezone Europe/London (UTC+1.0)
Stats Elevation 524 ft / 160 m (AMSL)
Location 51.874600° -0.368432°
Runways 1
Magnetic Variation 0.005° W

METAR

EGGW 161420Z AUTO VRB03KT 9999 BKN012 BKN017 14/11 Q1019

Decode

TAF

TAF EGGW 161101Z 1612/1712 19006KT 9999 BKN045 PROB40 TEMPO 1612/1614 6000 BKN005 TEMPO 1620/1710 6000 PROB30 TEMPO 1622/1709 2000 BR BKN002

Decode

Destination Runways

ID Width Length Bearing (true/mag) Surface Threshold Overrun Markings Lighting
07 150 ft / 46 m 7,067 ft / 2,154 m 74.35° / 74.36° ASPHALT 0 ft / 0 m 197 ft / 60 m UK-PREC-APP CENTERLINE EDGE THRESHOLD ALSF-I REIL-OMNI
25 150 ft / 46 m 7,067 ft / 2,154 m 254.37° / 254.38° ASPHALT 279 ft / 85 m 0 ft / 0 m UK-PREC-APP CENTERLINE EDGE THRESHOLD CALVERT REIL-OMNI

Approach Navaids

Runway Type Ident Frequency Range Bearing (true/mag) Slope Elevation
07 LOC-ILS ILTN 109.15 MHz 18 nm / 33 km 74.36° / 74.36 ° - 526 ft / 160 m (AMSL)
07 GS ILTN 109.15 MHz 10 nm / 19 km 74.36° / 74.36 ° 3.00° 526 ft / 160 m (AMSL)
25 LOC-ILS ILJ 109.15 MHz 18 nm / 33 km 254.36° / 254.36 ° - 526 ft / 160 m (AMSL)
25 GS ILJ 109.15 MHz 10 nm / 19 km 254.36° / 254.36 ° 3.00° 526 ft / 160 m (AMSL)

Popular Alternatives